sensor_id;sensor_type;location;lat;lon;timestamp;pressure;altitude;pressure_sealevel;temperature;humidity
2000;BME280;1001;48.87406500;9.59633600;2023-07-24T00:00:39;94530.31;;;18.05;85.20
2000;BME280;1001;48.87406500;9.59633600;2023-07-24T00:03:06;94545.75;;;18.17;81.36
2000;BME280;1001;48.87406500;9.59633600;2023-07-24T00:05:34;94550.38;;;18.25;81.24
2000;BME280;1001;48.87406500;9.59633600;2023-07-24T00:08:02;94535.94;;;18.17;81.12
2000;BME280;1001;48.87406500;9.59633600;2023-07-24T00:10:28;94527.63;;;18.24;80.11
2000;BME280;1001;48.87406500;9.59633600;2023-07-24T00:12:55;94548.44;;;18.30;80.30
2000;BME280;1001;48.87406500;9.59633600;2023-07-24T00:15:22;94597.34;;;18.52;77.70
2000;BME280;1001;48.87406500;9.59633600;2023-07-24T00:17:48;94628.69;;;18.77;75.70
2000;BME280;1001;48.87406500;9.59633600;2023-07-24T00:20:15;94522.75;;;18.63;76.68
2000;BME280;1001;48.87406500;9.59633600;2023-07-24T00:22:43;94468.09;;;18.67;82.25
2000;BME280;1001;48.87406500;9.59633600;2023-07-24T00:25:10;94487.66;;;18.39;87.43
2000;BME280;1001;48.87406500;9.59633600;2023-07-24T00:27:36;94535.06;;;18.22;82.18
2000;BME280;1001;48.87406500;9.59633600;2023-07-24T00:30:03;94560.38;;;18.28;83.41
2000;BME280;1001;48.87406500;9.59633600;2023-07-24T00:32:30;94532.00;;;18.15;83.29
2000;BME280;1001;48.87406500;9.59633600;2023-07-24T00:34:57;94552.97;;;18.11;83.04
2000;BME280;1001;48.87406500;9.59633600;2023-07-24T00:37:24;94565.38;;;18.29;81.97
2000;BME280;1001;48.87406500;9.59633600;2023-07-24T00:39:52;94471.28;;;18.23;82.96
2000;BME280;1001;48.87406500;9.59633600;2023-07-24T00:42:18;94503.34;;;18.35;87.14
2000;BME280;1001;48.87406500;9.59633600;2023-07-24T00:44:45;94544.25;;;18.11;87.43
2000;BME280;1001;48.87406500;9.59633600;2023-07-24T00:47:12;94517.47;;;17.80;90.49
2000;BME280;1001;48.87406500;9.59633600;2023-07-24T00:49:38;94493.81;;;17.51;91.88
2000;BME280;1001;48.87406500;9.59633600;2023-07-24T00:52:06;94525.88;;;17.26;96.35
2000;BME280;1001;48.87406500;9.59633600;2023-07-24T00:54:34;94517.13;;;17.26;95.60
2000;BME280;1001;48.87406500;9.59633600;2023-07-24T00:57:03;94488.28;;;17.11;98.44
2000;BME280;1001;48.87406500;9.59633600;2023-07-24T00:59:31;94492.34;;;17.03;99.04
2000;BME280;1001;48.87406500;9.59633600;2023-07-24T01:01:58;94494.75;;;16.99;100.00
2000;BME280;1001;48.87406500;9.59633600;2023-07-24T01:04:25;94485.47;;;17.02;100.00
2000;BME280;1001;48.87406500;9.59633600;2023-07-24T01:06:52;94476.69;;;17.07;100.00
2000;BME280;1001;48.87406500;9.59633600;2023-07-24T01:09:18;94468.91;;;16.96;100.00
2000;BME280;1001;48.87406500;9.59633600;2023-07-24T01:11:47;94459.59;;;16.80;100.00
2000;BME280;1001;48.87406500;9.59633600;2023-07-24T01:14:21;94456.91;;;16.62;100.00
2000;BME280;1001;48.87406500;9.59633600;2023-07-24T01:16:50;94455.16;;;16.52;100.00
2000;BME280;1001;48.87406500;9.59633600;2023-07-24T01:19:32;94439.06;;;16.54;100.00
2000;BME280;1001;48.87406500;9.59633600;2023-07-24T01:22:04;94434.00;;;16.57;100.00
2000;BME280;1001;48.87406500;9.59633600;2023-07-24T01:24:45;94427.66;;;16.58;100.00
2000;BME280;1001;48.87406500;9.59633600;2023-07-24T01:27:20;94425.91;;;16.49;100.00
2000;BME280;1001;48.87406500;9.59633600;2023-07-24T01:29:47;94435.34;;;16.55;100.00
2000;BME280;1001;48.87406500;9.59633600;2023-07-24T01:32:13;94426.38;;;16.56;100.00
2000;BME280;1001;48.87406500;9.59633600;2023-07-24T01:34:40;94415.31;;;16.54;100.00
2000;BME280;1001;48.87406500;9.59633600;2023-07-24T01:37:07;94421.50;;;16.39;100.00
2000;BME280;1001;48.87406500;9.59633600;2023-07-24T01:39:34;94424.59;;;16.22;100.00
2000;BME280;1001;48.87406500;9.59633600;2023-07-24T01:42:01;94430.72;;;16.18;100.00
2000;BME280;1001;48.87406500;9.59633600;2023-07-24T01:44:30;94425.75;;;16.11;100.00
2000;BME280;1001;48.87406500;9.59633600;2023-07-24T01:46:56;94419.13;;;16.14;100.00
2000;BME280;1001;48.87406500;9.59633600;2023-07-24T01:49:23;94426.28;;;16.13;100.00
2000;BME280;1001;48.87406500;9.59633600;2023-07-24T01:51:50;94436.28;;;16.11;100.00
2000;BME280;1001;48.87406500;9.59633600;2023-07-24T01:54:16;94433.66;;;16.11;100.00
2000;BME280;1001;48.87406500;9.59633600;2023-07-24T01:56:43;94433.66;;;16.11;100.00
2000;BME280;1001;48.87406500;9.59633600;2023-07-24T01:59:10;94439.22;;;16.10;100.00
2000;BME280;1001;48.87406500;9.59633600;2023-07-24T02:01:38;94438.47;;;16.04;100.00
2000;BME280;1001;48.87406500;9.59633600;2023-07-24T02:04:04;94436.41;;;16.01;100.00
2000;BME280;1001;48.87406500;9.59633600;2023-07-24T02:06:31;94446.69;;;16.03;100.00
2000;BME280;1001;48.87406500;9.59633600;2023-07-24T02:08:57;94441.84;;;16.10;100.00
2000;BME280;1001;48.87406500;9.59633600;2023-07-24T02:11:24;94432.09;;;16.10;100.00
2000;BME280;1001;48.87406500;9.59633600;2023-07-24T02:13:51;94435.50;;;16.16;100.00
2000;BME280;1001;48.87406500;9.59633600;2023-07-24T02:16:17;94430.25;;;16.11;100.00
2000;BME280;1001;48.87406500;9.59633600;2023-07-24T02:18:45;94432.38;;;16.09;100.00
2000;BME280;1001;48.87406500;9.59633600;2023-07-24T02:21:12;94432.94;;;16.06;100.00
2000;BME280;1001;48.87406500;9.59633600;2023-07-24T02:23:38;94426.59;;;16.07;100.00
2000;BME280;1001;48.87406500;9.59633600;2023-07-24T02:26:05;94427.13;;;16.09;100.00
2000;BME280;1001;48.87406500;9.59633600;2023-07-24T02:28:32;94421.00;;;16.13;100.00
2000;BME280;1001;48.87406500;9.59633600;2023-07-24T02:30:57;94415.44;;;16.15;100.00
2000;BME280;1001;48.87406500;9.59633600;2023-07-24T02:33:25;94415.09;;;16.21;99.64
2000;BME280;1001;48.87406500;9.59633600;2023-07-24T02:35:53;94418.78;;;16.25;98.88
2000;BME280;1001;48.87406500;9.59633600;2023-07-24T02:38:20;94407.81;;;16.37;97.39
2000;BME280;1001;48.87406500;9.59633600;2023-07-24T02:40:46;94408.44;;;16.29;98.08
2000;BME280;1001;48.87406500;9.59633600;2023-07-24T02:43:13;94406.06;;;16.27;97.89
2000;BME280;1001;48.87406500;9.59633600;2023-07-24T02:45:40;94409.13;;;16.40;96.09
2000;BME280;1001;48.87406500;9.59633600;2023-07-24T02:48:07;94417.25;;;16.43;95.72
2000;BME280;1001;48.87406500;9.59633600;2023-07-24T02:50:34;94413.69;;;16.58;93.90
2000;BME280;1001;48.87406500;9.59633600;2023-07-24T02:53:02;94413.88;;;16.61;94.02
2000;BME280;1001;48.87406500;9.59633600;2023-07-24T02:55:29;94401.53;;;16.57;94.53
2000;BME280;1001;48.87406500;9.59633600;2023-07-24T02:57:56;94397.59;;;16.54;93.99
2000;BME280;1001;48.87406500;9.59633600;2023-07-24T03:00:22;94388.06;;;16.58;93.43
2000;BME280;1001;48.87406500;9.59633600;2023-07-24T03:02:49;94388.78;;;16.64;92.14
2000;BME280;1001;48.87406500;9.59633600;2023-07-24T03:05:16;94385.03;;;16.70;90.49
2000;BME280;1001;48.87406500;9.59633600;2023-07-24T03:07:42;94386.31;;;16.91;89.20
2000;BME280;1001;48.87406500;9.59633600;2023-07-24T03:10:10;94375.81;;;17.05;86.71
2000;BME280;1001;48.87406500;9.59633600;2023-07-24T03:12:37;94364.75;;;17.02;87.47
2000;BME280;1001;48.87406500;9.59633600;2023-07-24T03:15:05;94375.38;;;17.16;86.32
2000;BME280;1001;48.87406500;9.59633600;2023-07-24T03:17:31;94382.56;;;17.48;83.15
2000;BME280;1001;48.87406500;9.59633600;2023-07-24T03:19:59;94368.34;;;17.44;83.69
2000;BME280;1001;48.87406500;9.59633600;2023-07-24T03:22:25;94355.72;;;17.41;83.70
2000;BME280;1001;48.87406500;9.59633600;2023-07-24T03:24:52;94363.47;;;17.51;82.22
2000;BME280;1001;48.87406500;9.59633600;2023-07-24T03:27:20;94367.19;;;17.50;82.80
2000;BME280;1001;48.87406500;9.59633600;2023-07-24T03:29:46;94365.63;;;17.49;83.13
2000;BME280;1001;48.87406500;9.59633600;2023-07-24T03:32:13;94351.06;;;17.51;83.00
2000;BME280;1001;48.87406500;9.59633600;2023-07-24T03:34:40;94349.44;;;17.55;81.74
2000;BME280;1001;48.87406500;9.59633600;2023-07-24T03:37:06;94352.06;;;18.01;79.08
2000;BME280;1001;48.87406500;9.59633600;2023-07-24T03:39:33;94357.34;;;17.88;80.04
2000;BME280;1001;48.87406500;9.59633600;2023-07-24T03:41:59;94372.03;;;17.94;80.00
2000;BME280;1001;48.87406500;9.59633600;2023-07-24T03:44:27;94363.31;;;17.93;79.90
2000;BME280;1001;48.87406500;9.59633600;2023-07-24T03:46:54;94361.91;;;17.82;80.87
2000;BME280;1001;48.87406500;9.59633600;2023-07-24T03:49:21;94367.22;;;17.82;81.35
2000;BME280;1001;48.87406500;9.59633600;2023-07-24T03:51:47;94362.72;;;17.83;80.86
2000;BME280;1001;48.87406500;9.59633600;2023-07-24T03:54:14;94360.06;;;17.96;79.79
2000;BME280;1001;48.87406500;9.59633600;2023-07-24T03:56:41;94347.31;;;17.85;81.62
2000;BME280;1001;48.87406500;9.59633600;2023-07-24T03:59:07;94345.56;;;17.80;81.38
2000;BME280;1001;48.87406500;9.59633600;2023-07-24T04:01:35;94353.50;;;17.94;80.85
2000;BME280;1001;48.87406500;9.59633600;2023-07-24T04:04:02;94361.09;;;18.00;80.93
2000;BME280;1001;48.87406500;9.59633600;2023-07-24T04:06:29;94362.94;;;18.13;80.20
2000;BME280;1001;48.87406500;9.59633600;2023-07-24T04:08:55;94357.47;;;18.23;80.38
2000;BME280;1001;48.87406500;9.59633600;2023-07-24T04:11:22;94355.22;;;18.30;79.99
2000;BME280;1001;48.87406500;9.59633600;2023-07-24T04:13:48;94350.69;;;18.45;79.20
2000;BME280;1001;48.87406500;9.59633600;2023-07-24T04:16:15;94354.72;;;18.56;78.95
2000;BME280;1001;48.87406500;9.59633600;2023-07-24T04:18:43;94363.06;;;18.63;79.14
2000;BME280;1001;48.87406500;9.59633600;2023-07-24T04:21:10;94355.78;;;18.68;78.62
2000;BME280;1001;48.87406500;9.59633600;2023-07-24T04:23:36;94358.63;;;18.72;78.32
2000;BME280;1001;48.87406500;9.59633600;2023-07-24T04:26:03;94356.47;;;18.74;78.88
2000;BME280;1001;48.87406500;9.59633600;2023-07-24T04:28:29;94339.59;;;18.70;79.28
2000;BME280;1001;48.87406500;9.59633600;2023-07-24T04:30:59;94353.31;;;18.72;79.92
2000;BME280;1001;48.87406500;9.59633600;2023-07-24T04:33:26;94339.50;;;18.75;79.63
2000;BME280;1001;48.87406500;9.59633600;2023-07-24T04:35:54;94340.28;;;18.75;78.62
2000;BME280;1001;48.87406500;9.59633600;2023-07-24T04:38:20;94332.50;;;18.79;80.40
2000;BME280;1001;48.87406500;9.59633600;2023-07-24T04:40:47;94327.41;;;18.82;80.51
2000;BME280;1001;48.87406500;9.59633600;2023-07-24T04:43:14;94326.22;;;18.88;80.63
2000;BME280;1001;48.87406500;9.59633600;2023-07-24T04:45:40;94324.13;;;18.99;80.63
2000;BME280;1001;48.87406500;9.59633600;2023-07-24T04:48:07;94311.91;;;19.12;79.63
2000;BME280;1001;48.87406500;9.59633600;2023-07-24T04:50:34;94310.59;;;19.23;79.80
2000;BME280;1001;48.87406500;9.59633600;2023-07-24T04:53:02;94310.63;;;19.31;78.47
2000;BME280;1001;48.87406500;9.59633600;2023-07-24T04:55:28;94314.38;;;19.30;79.45
2000;BME280;1001;48.87406500;9.59633600;2023-07-24T04:57:55;94302.31;;;19.38;80.03
2000;BME280;1001;48.87406500;9.59633600;2023-07-24T05:00:22;94308.38;;;19.38;79.98
2000;BME280;1001;48.87406500;9.59633600;2023-07-24T05:02:48;94309.19;;;19.47;79.43
2000;BME280;1001;48.87406500;9.59633600;2023-07-24T05:05:15;94315.00;;;19.49;78.37
2000;BME280;1001;48.87406500;9.59633600;2023-07-24T05:07:42;94315.41;;;19.43;79.21
2000;BME280;1001;48.87406500;9.59633600;2023-07-24T05:10:10;94316.88;;;19.49;79.37
2000;BME280;1001;48.87406500;9.59633600;2023-07-24T05:12:36;94311.69;;;19.44;79.18
2000;BME280;1001;48.87406500;9.59633600;2023-07-24T05:15:02;94310.13;;;19.43;79.83
2000;BME280;1001;48.87406500;9.59633600;2023-07-24T05:17:29;94316.69;;;19.45;80.19
2000;BME280;1001;48.87406500;9.59633600;2023-07-24T05:19:56;94318.63;;;19.53;80.01
2000;BME280;1001;48.87406500;9.59633600;2023-07-24T05:22:22;94317.28;;;19.64;79.50
2000;BME280;1001;48.87406500;9.59633600;2023-07-24T05:24:49;94319.47;;;19.71;78.79
2000;BME280;1001;48.87406500;9.59633600;2023-07-24T05:27:17;94315.25;;;19.92;78.02
2000;BME280;1001;48.87406500;9.59633600;2023-07-24T05:29:43;94313.56;;;20.05;78.32
2000;BME280;1001;48.87406500;9.59633600;2023-07-24T05:32:10;94323.00;;;20.19;76.84
2000;BME280;1001;48.87406500;9.59633600;2023-07-24T05:34:37;94306.09;;;20.46;76.23
2000;BME280;1001;48.87406500;9.59633600;2023-07-24T05:37:05;94305.19;;;20.68;75.21
2000;BME280;1001;48.87406500;9.59633600;2023-07-24T05:39:31;94314.41;;;20.79;74.33
2000;BME280;1001;48.87406500;9.59633600;2023-07-24T05:41:58;94315.53;;;20.86;75.07
2000;BME280;1001;48.87406500;9.59633600;2023-07-24T05:44:26;94303.16;;;20.99;74.54
2000;BME280;1001;48.87406500;9.59633600;2023-07-24T05:46:53;94318.16;;;20.95;73.95
2000;BME280;1001;48.87406500;9.59633600;2023-07-24T05:49:19;94313.81;;;20.82;74.53
2000;BME280;1001;48.87406500;9.59633600;2023-07-24T05:51:46;94323.03;;;20.93;74.53
2000;BME280;1001;48.87406500;9.59633600;2023-07-24T05:54:12;94322.22;;;20.92;73.77
2000;BME280;1001;48.87406500;9.59633600;2023-07-24T05:56:39;94318.78;;;20.92;74.95
2000;BME280;1001;48.87406500;9.59633600;2023-07-24T05:59:06;94332.88;;;20.84;75.26
2000;BME280;1001;48.87406500;9.59633600;2023-07-24T06:01:34;94333.19;;;20.91;73.25
2000;BME280;1001;48.87406500;9.59633600;2023-07-24T06:04:00;94336.00;;;20.86;73.59
2000;BME280;1001;48.87406500;9.59633600;2023-07-24T06:06:27;94349.94;;;20.91;72.91
2000;BME280;1001;48.87406500;9.59633600;2023-07-24T06:08:54;94362.88;;;20.93;72.17
2000;BME280;1001;48.87406500;9.59633600;2023-07-24T06:11:21;94366.47;;;20.88;72.58
2000;BME280;1001;48.87406500;9.59633600;2023-07-24T06:13:48;94366.94;;;20.82;72.19
2000;BME280;1001;48.87406500;9.59633600;2023-07-24T06:16:15;94368.50;;;20.83;73.36
2000;BME280;1001;48.87406500;9.59633600;2023-07-24T06:18:43;94374.47;;;20.88;73.12
2000;BME280;1001;48.87406500;9.59633600;2023-07-24T06:21:09;94376.75;;;20.73;73.46
2000;BME280;1001;48.87406500;9.59633600;2023-07-24T06:23:36;94380.53;;;20.72;74.20
2000;BME280;1001;48.87406500;9.59633600;2023-07-24T06:26:02;94378.81;;;20.76;73.97
2000;BME280;1001;48.87406500;9.59633600;2023-07-24T06:28:29;94372.69;;;20.67;74.13
2000;BME280;1001;48.87406500;9.59633600;2023-07-24T06:30:57;94366.91;;;20.73;74.02
2000;BME280;1001;48.87406500;9.59633600;2023-07-24T06:33:23;94357.34;;;20.64;75.41
2000;BME280;1001;48.87406500;9.59633600;2023-07-24T06:35:51;94345.47;;;20.61;75.14
2000;BME280;1001;48.87406500;9.59633600;2023-07-24T06:38:18;94349.38;;;20.64;74.76
2000;BME280;1001;48.87406500;9.59633600;2023-07-24T06:40:46;94355.03;;;20.62;74.99
2000;BME280;1001;48.87406500;9.59633600;2023-07-24T06:43:13;94356.88;;;20.62;75.82
2000;BME280;1001;48.87406500;9.59633600;2023-07-24T06:45:39;94353.94;;;20.72;75.84
2000;BME280;1001;48.87406500;9.59633600;2023-07-24T06:48:06;94350.34;;;20.85;75.26
2000;BME280;1001;48.87406500;9.59633600;2023-07-24T06:50:33;94342.06;;;20.78;74.36
2000;BME280;1001;48.87406500;9.59633600;2023-07-24T06:53:01;94337.41;;;20.92;74.16
2000;BME280;1001;48.87406500;9.59633600;2023-07-24T06:55:27;94322.69;;;20.94;74.17
2000;BME280;1001;48.87406500;9.59633600;2023-07-24T06:57:54;94326.94;;;20.95;74.05
2000;BME280;1001;48.87406500;9.59633600;2023-07-24T07:00:21;94319.63;;;21.10;74.98
2000;BME280;1001;48.87406500;9.59633600;2023-07-24T07:02:47;94324.78;;;21.23;74.08
2000;BME280;1001;48.87406500;9.59633600;2023-07-24T07:05:14;94324.00;;;21.31;73.54
2000;BME280;1001;48.87406500;9.59633600;2023-07-24T07:07:40;94324.75;;;21.40;72.33
2000;BME280;1001;48.87406500;9.59633600;2023-07-24T07:10:09;94325.66;;;21.61;72.33
2000;BME280;1001;48.87406500;9.59633600;2023-07-24T07:12:35;94342.06;;;21.81;71.86
2000;BME280;1001;48.87406500;9.59633600;2023-07-24T07:15:02;94343.31;;;21.83;71.18
2000;BME280;1001;48.87406500;9.59633600;2023-07-24T07:17:29;94343.94;;;21.80;70.86
2000;BME280;1001;48.87406500;9.59633600;2023-07-24T07:19:56;94351.94;;;21.89;72.27
2000;BME280;1001;48.87406500;9.59633600;2023-07-24T07:22:23;94339.13;;;21.74;70.65
2000;BME280;1001;48.87406500;9.59633600;2023-07-24T07:24:49;94335.22;;;21.62;71.48
2000;BME280;1001;48.87406500;9.59633600;2023-07-24T07:27:17;94346.47;;;21.68;72.31
2000;BME280;1001;48.87406500;9.59633600;2023-07-24T07:29:44;94353.22;;;21.74;71.99
2000;BME280;1001;48.87406500;9.59633600;2023-07-24T07:32:10;94345.88;;;21.62;70.69
2000;BME280;1001;48.87406500;9.59633600;2023-07-24T07:34:37;94349.47;;;21.66;70.91
2000;BME280;1001;48.87406500;9.59633600;2023-07-24T07:37:04;94354.13;;;21.95;70.59
2000;BME280;1001;48.87406500;9.59633600;2023-07-24T07:39:31;94359.88;;;22.06;69.49
2000;BME280;1001;48.87406500;9.59633600;2023-07-24T07:41:59;94369.88;;;22.17;69.71
2000;BME280;1001;48.87406500;9.59633600;2023-07-24T07:44:27;94368.72;;;22.35;70.13
2000;BME280;1001;48.87406500;9.59633600;2023-07-24T07:46:53;94375.34;;;22.59;70.92
2000;BME280;1001;48.87406500;9.59633600;2023-07-24T07:49:20;94383.66;;;22.66;69.76
2000;BME280;1001;48.87406500;9.59633600;2023-07-24T07:51:46;94387.78;;;22.84;68.05
2000;BME280;1001;48.87406500;9.59633600;2023-07-24T07:54:13;94389.38;;;22.76;68.61
2000;BME280;1001;48.87406500;9.59633600;2023-07-24T07:56:40;94393.50;;;22.74;69.06
2000;BME280;1001;48.87406500;9.59633600;2023-07-24T07:59:07;94404.91;;;22.83;67.85
2000;BME280;1001;48.87406500;9.59633600;2023-07-24T08:01:37;94399.56;;;22.83;68.44
2000;BME280;1001;48.87406500;9.59633600;2023-07-24T08:04:04;94401.00;;;22.80;68.60
2000;BME280;1001;48.87406500;9.59633600;2023-07-24T08:06:31;94401.63;;;22.77;67.48
2000;BME280;1001;48.87406500;9.59633600;2023-07-24T08:08:57;94410.00;;;23.17;67.80
2000;BME280;1001;48.87406500;9.59633600;2023-07-24T08:11:24;94420.25;;;23.36;66.66
2000;BME280;1001;48.87406500;9.59633600;2023-07-24T08:13:51;94422.97;;;23.56;65.59
2000;BME280;1001;48.87406500;9.59633600;2023-07-24T08:16:17;94432.31;;;23.42;66.42
2000;BME280;1001;48.87406500;9.59633600;2023-07-24T08:18:46;94421.56;;;23.00;66.84
2000;BME280;1001;48.87406500;9.59633600;2023-07-24T08:21:13;94431.72;;;23.07;67.58
2000;BME280;1001;48.87406500;9.59633600;2023-07-24T08:23:40;94427.84;;;22.58;68.42
2000;BME280;1001;48.87406500;9.59633600;2023-07-24T08:26:07;94427.41;;;22.56;70.87
2000;BME280;1001;48.87406500;9.59633600;2023-07-24T08:28:34;94423.41;;;22.24;72.98
2000;BME280;1001;48.87406500;9.59633600;2023-07-24T08:31:01;94427.25;;;21.89;74.45
2000;BME280;1001;48.87406500;9.59633600;2023-07-24T08:33:28;94419.59;;;21.62;76.23
2000;BME280;1001;48.87406500;9.59633600;2023-07-24T08:36:01;94412.84;;;21.47;77.39
2000;BME280;1001;48.87406500;9.59633600;2023-07-24T08:38:28;94391.28;;;21.32;79.64
2000;BME280;1001;48.87406500;9.59633600;2023-07-24T08:41:05;94381.22;;;21.12;82.07
2000;BME280;1001;48.87406500;9.59633600;2023-07-24T08:43:33;94395.03;;;20.66;88.31
2000;BME280;1001;48.87406500;9.59633600;2023-07-24T08:46:02;94390.66;;;20.22;91.88
2000;BME280;1001;48.87406500;9.59633600;2023-07-24T08:48:31;94386.09;;;19.92;94.74
2000;BME280;1001;48.87406500;9.59633600;2023-07-24T08:51:02;94396.25;;;19.67;97.92
2000;BME280;1001;48.87406500;9.59633600;2023-07-24T08:53:29;94380.88;;;19.56;99.98
2000;BME280;1001;48.87406500;9.59633600;2023-07-24T08:55:56;94382.56;;;19.52;100.00
2000;BME280;1001;48.87406500;9.59633600;2023-07-24T08:58:23;94377.56;;;19.50;100.00
2000;BME280;1001;48.87406500;9.59633600;2023-07-24T09:00:50;94371.06;;;19.56;100.00
2000;BME280;1001;48.87406500;9.59633600;2023-07-24T09:03:17;94374.78;;;19.78;100.00
2000;BME280;1001;48.87406500;9.59633600;2023-07-24T09:05:45;94364.28;;;19.73;100.00
2000;BME280;1001;48.87406500;9.59633600;2023-07-24T09:08:13;94344.78;;;19.68;100.00
2000;BME280;1001;48.87406500;9.59633600;2023-07-24T09:10:39;94339.31;;;19.74;100.00
2000;BME280;1001;48.87406500;9.59633600;2023-07-24T09:13:06;94334.63;;;19.71;100.00
2000;BME280;1001;48.87406500;9.59633600;2023-07-24T09:15:39;94327.44;;;19.71;100.00
2000;BME280;1001;48.87406500;9.59633600;2023-07-24T09:18:06;94316.56;;;19.81;100.00
2000;BME280;1001;48.87406500;9.59633600;2023-07-24T09:20:38;94315.38;;;19.87;100.00
2000;BME280;1001;48.87406500;9.59633600;2023-07-24T09:23:05;94314.31;;;19.97;100.00
2000;BME280;1001;48.87406500;9.59633600;2023-07-24T09:25:34;94318.88;;;20.05;100.00
2000;BME280;1001;48.87406500;9.59633600;2023-07-24T09:28:08;94319.22;;;20.12;100.00
2000;BME280;1001;48.87406500;9.59633600;2023-07-24T09:30:35;94302.22;;;20.21;100.00
2000;BME280;1001;48.87406500;9.59633600;2023-07-24T09:33:02;94300.06;;;20.23;100.00
2000;BME280;1001;48.87406500;9.59633600;2023-07-24T09:35:29;94314.34;;;20.45;100.00
2000;BME280;1001;48.87406500;9.59633600;2023-07-24T09:38:02;94322.50;;;20.57;100.00
2000;BME280;1001;48.87406500;9.59633600;2023-07-24T09:40:39;94320.50;;;20.79;100.00
2000;BME280;1001;48.87406500;9.59633600;2023-07-24T09:43:19;94319.28;;;20.94;98.66
2000;BME280;1001;48.87406500;9.59633600;2023-07-24T09:45:48;94321.94;;;21.11;100.00
2000;BME280;1001;48.87406500;9.59633600;2023-07-24T09:48:15;94314.75;;;21.20;98.07
2000;BME280;1001;48.87406500;9.59633600;2023-07-24T09:50:44;94324.44;;;21.50;96.80
2000;BME280;1001;48.87406500;9.59633600;2023-07-24T09:53:14;94317.22;;;21.59;96.22
2000;BME280;1001;48.87406500;9.59633600;2023-07-24T09:55:49;94336.00;;;21.54;95.93
2000;BME280;1001;48.87406500;9.59633600;2023-07-24T09:58:18;94328.19;;;21.32;92.37
2000;BME280;1001;48.87406500;9.59633600;2023-07-24T10:00:48;94339.63;;;21.16;92.31
2000;BME280;1001;48.87406500;9.59633600;2023-07-24T10:03:16;94344.34;;;21.10;94.76
2000;BME280;1001;48.87406500;9.59633600;2023-07-24T10:05:44;94357.56;;;21.01;95.09
2000;BME280;1001;48.87406500;9.59633600;2023-07-24T10:08:11;94370.69;;;20.81;94.39
2000;BME280;1001;48.87406500;9.59633600;2023-07-24T10:10:38;94369.56;;;20.65;94.42
2000;BME280;1001;48.87406500;9.59633600;2023-07-24T10:13:07;94369.88;;;20.63;96.12
2000;BME280;1001;48.87406500;9.59633600;2023-07-24T10:15:36;94370.31;;;20.57;97.69
2000;BME280;1001;48.87406500;9.59633600;2023-07-24T10:18:05;94379.34;;;20.47;97.02
2000;BME280;1001;48.87406500;9.59633600;2023-07-24T10:20:35;94384.28;;;20.31;97.08
2000;BME280;1001;48.87406500;9.59633600;2023-07-24T10:23:02;94399.56;;;20.26;96.49
2000;BME280;1001;48.87406500;9.59633600;2023-07-24T10:25:30;94408.75;;;20.20;97.71
2000;BME280;1001;48.87406500;9.59633600;2023-07-24T10:28:03;94425.84;;;20.27;97.99
2000;BME280;1001;48.87406500;9.59633600;2023-07-24T10:30:34;94432.53;;;20.25;98.89
2000;BME280;1001;48.87406500;9.59633600;2023-07-24T10:33:09;94432.16;;;20.18;98.37
2000;BME280;1001;48.87406500;9.59633600;2023-07-24T10:35:37;94428.28;;;20.02;99.55
2000;BME280;1001;48.87406500;9.59633600;2023-07-24T10:38:04;94428.38;;;19.88;100.00
2000;BME280;1001;48.87406500;9.59633600;2023-07-24T10:40:32;94432.88;;;19.88;100.00
2000;BME280;1001;48.87406500;9.59633600;2023-07-24T10:43:00;94425.06;;;19.83;100.00
2000;BME280;1001;48.87406500;9.59633600;2023-07-24T10:45:39;94417.09;;;19.60;100.00
2000;BME280;1001;48.87406500;9.59633600;2023-07-24T10:48:06;94422.59;;;19.64;100.00
2000;BME280;1001;48.87406500;9.59633600;2023-07-24T10:50:37;94422.34;;;19.52;100.00
2000;BME280;1001;48.87406500;9.59633600;2023-07-24T10:53:04;94423.84;;;19.44;100.00
2000;BME280;1001;48.87406500;9.59633600;2023-07-24T10:55:30;94421.63;;;19.38;100.00
2000;BME280;1001;48.87406500;9.59633600;2023-07-24T10:57:57;94426.03;;;19.42;100.00
2000;BME280;1001;48.87406500;9.59633600;2023-07-24T11:00:25;94428.47;;;19.39;100.00
2000;BME280;1001;48.87406500;9.59633600;2023-07-24T11:02:54;94435.44;;;19.35;100.00
2000;BME280;1001;48.87406500;9.59633600;2023-07-24T11:05:21;94434.28;;;19.27;100.00
2000;BME280;1001;48.87406500;9.59633600;2023-07-24T11:07:48;94434.00;;;19.15;100.00
2000;BME280;1001;48.87406500;9.59633600;2023-07-24T11:10:15;94443.06;;;19.14;100.00
2000;BME280;1001;48.87406500;9.59633600;2023-07-24T11:12:42;94442.06;;;19.10;100.00
2000;BME280;1001;48.87406500;9.59633600;2023-07-24T11:15:10;94457.41;;;18.99;100.00
2000;BME280;1001;48.87406500;9.59633600;2023-07-24T11:17:37;94450.13;;;18.91;100.00
2000;BME280;1001;48.87406500;9.59633600;2023-07-24T11:20:11;94449.66;;;18.89;100.00
2000;BME280;1001;48.87406500;9.59633600;2023-07-24T11:22:39;94441.63;;;18.81;100.00
2000;BME280;1001;48.87406500;9.59633600;2023-07-24T11:25:07;94439.06;;;18.76;100.00
2000;BME280;1001;48.87406500;9.59633600;2023-07-24T11:27:38;94428.84;;;18.69;100.00
2000;BME280;1001;48.87406500;9.59633600;2023-07-24T11:30:07;94421.69;;;18.70;100.00
2000;BME280;1001;48.87406500;9.59633600;2023-07-24T11:32:34;94411.19;;;18.65;100.00
2000;BME280;1001;48.87406500;9.59633600;2023-07-24T11:35:01;94395.44;;;18.60;100.00
2000;BME280;1001;48.87406500;9.59633600;2023-07-24T11:37:30;94375.72;;;18.52;100.00
2000;BME280;1001;48.87406500;9.59633600;2023-07-24T11:39:58;94363.66;;;18.60;100.00
2000;BME280;1001;48.87406500;9.59633600;2023-07-24T11:42:26;94345.78;;;18.65;100.00